createdAt,value
2022-12-04T00:02:00.285Z,15.60
2022-12-04T00:04:28.703Z,15.82
2022-12-04T00:06:59.037Z,15.75
2022-12-04T00:09:27.632Z,15.57
2022-12-04T00:11:55.964Z,15.98
2022-12-04T00:14:24.364Z,15.43
2022-12-04T00:16:56.866Z,14.65
2022-12-04T00:19:25.274Z,15.50
2022-12-04T00:21:54.026Z,15.90
2022-12-04T00:24:22.368Z,15.70
2022-12-04T00:26:50.741Z,16.38
2022-12-04T00:29:19.258Z,16.83
2022-12-04T00:31:47.767Z,15.90
2022-12-04T00:34:17.724Z,18.38
2022-12-04T00:36:47.136Z,17.27
2022-12-04T00:39:15.843Z,17.38
2022-12-04T00:41:44.623Z,16.73
2022-12-04T00:44:13.436Z,16.90
2022-12-04T00:46:43.326Z,17.58
2022-12-04T00:49:12.801Z,16.92
2022-12-04T00:51:43.115Z,16.58
2022-12-04T00:54:11.737Z,16.40
2022-12-04T00:56:40.836Z,16.27
2022-12-04T00:59:13.532Z,16.35
2022-12-04T01:01:42.374Z,15.75
2022-12-04T01:04:11.284Z,15.63
2022-12-04T01:06:39.636Z,16.20
2022-12-04T01:09:09.457Z,16.60
2022-12-04T01:11:38.390Z,16.25
2022-12-04T01:14:07.117Z,16.08
2022-12-04T01:16:37.352Z,16.48
2022-12-04T01:19:07.004Z,16.60
2022-12-04T01:21:35.565Z,16.17
2022-12-04T01:24:04.073Z,16.10
2022-12-04T01:26:34.078Z,15.35
2022-12-04T01:29:02.743Z,15.43
2022-12-04T01:31:31.705Z,16.08
2022-12-04T01:34:00.264Z,15.43
2022-12-04T01:36:29.664Z,15.93
2022-12-04T01:38:58.225Z,15.02
2022-12-04T01:41:28.230Z,15.10
2022-12-04T01:44:16.424Z,15.52
2022-12-04T01:46:45.571Z,15.98
2022-12-04T01:49:16.733Z,14.85
2022-12-04T01:51:47.404Z,14.65
2022-12-04T01:54:18.688Z,14.40
2022-12-04T01:56:48.900Z,15.35
2022-12-04T01:59:21.067Z,14.70
2022-12-04T02:01:54.272Z,14.93
2022-12-04T02:04:22.712Z,15.02
2022-12-04T02:06:51.115Z,14.55
2022-12-04T02:09:24.722Z,14.40
2022-12-04T02:12:00.371Z,15.52
2022-12-04T02:14:34.519Z,15.30
2022-12-04T02:17:08.413Z,14.25
2022-12-04T02:20:21.723Z,13.70
2022-12-04T02:23:07.228Z,14.52
2022-12-04T02:25:40.252Z,15.43
2022-12-04T02:28:14.246Z,14.63
2022-12-04T02:30:43.139Z,14.93
2022-12-04T02:33:19.169Z,14.43
2022-12-04T02:35:50.031Z,14.10
2022-12-04T02:38:23.529Z,15.23
2022-12-04T02:40:54.681Z,14.38
2022-12-04T02:43:26.444Z,14.02
2022-12-04T02:45:59.926Z,15.10
2022-12-04T02:48:29.555Z,15.25
2022-12-04T02:50:58.043Z,13.85
2022-12-04T02:53:28.591Z,13.93
2022-12-04T02:55:59.833Z,13.55
2022-12-04T02:58:32.227Z,14.07
2022-12-04T03:01:02.615Z,13.65
2022-12-04T03:03:32.106Z,14.25
2022-12-04T03:06:01.915Z,13.93
2022-12-04T03:08:32.516Z,13.95
2022-12-04T03:11:02.052Z,14.77
2022-12-04T03:13:36.609Z,14.07
2022-12-04T03:16:08.971Z,13.80
2022-12-04T03:18:40.877Z,13.65
2022-12-04T03:21:12.611Z,13.82
2022-12-04T03:23:45.459Z,13.20
2022-12-04T03:26:18.939Z,13.02
2022-12-04T03:28:55.785Z,13.02
2022-12-04T03:31:30.337Z,13.32
2022-12-04T03:33:58.658Z,13.15
2022-12-04T03:36:29.675Z,12.90
2022-12-04T03:39:00.707Z,13.60
2022-12-04T03:41:33.880Z,12.90
2022-12-04T03:44:06.822Z,13.05
2022-12-04T03:46:37.887Z,13.75
2022-12-04T03:49:14.214Z,13.68
2022-12-04T03:51:45.843Z,12.65
2022-12-04T03:54:17.429Z,14.02
2022-12-04T03:56:48.865Z,12.63
2022-12-04T03:59:20.963Z,13.25
2022-12-04T04:01:50.556Z,13.20
2022-12-04T04:04:22.527Z,13.02
2022-12-04T04:06:54.771Z,12.98
2022-12-04T04:09:25.973Z,13.52
2022-12-04T04:11:58.661Z,13.23
2022-12-04T04:14:51.311Z,12.88
2022-12-04T04:17:41.121Z,12.50
2022-12-04T04:20:30.948Z,12.65
2022-12-04T04:23:18.370Z,12.60
2022-12-04T04:25:46.825Z,12.82
2022-12-04T04:28:32.283Z,12.57
2022-12-04T04:31:08.679Z,12.90
2022-12-04T04:33:44.188Z,12.00
2022-12-04T04:36:16.971Z,12.77
2022-12-04T04:38:48.681Z,12.07
2022-12-04T04:41:20.510Z,12.63
2022-12-04T04:44:07.223Z,13.30
2022-12-04T04:46:39.053Z,12.68
2022-12-04T04:49:09.734Z,12.80
2022-12-04T04:51:38.255Z,12.38
2022-12-04T04:54:09.112Z,12.10
2022-12-04T04:56:42.058Z,12.25
2022-12-04T04:59:10.562Z,12.93
2022-12-04T05:01:40.855Z,11.23
2022-12-04T05:04:09.405Z,12.65
2022-12-04T05:06:38.017Z,12.80
2022-12-04T05:09:06.702Z,12.05
2022-12-04T05:11:35.226Z,12.13
2022-12-04T05:14:03.627Z,11.88
2022-12-04T05:16:32.775Z,12.48
2022-12-04T05:19:20.468Z,11.60
2022-12-04T05:21:49.351Z,11.95
2022-12-04T05:24:17.779Z,11.75
2022-12-04T05:26:46.403Z,12.30
2022-12-04T05:29:14.854Z,11.27
2022-12-04T05:31:44.233Z,11.88
2022-12-04T05:34:14.948Z,11.95
2022-12-04T05:36:44.557Z,12.20
2022-12-04T05:39:13.097Z,12.25
2022-12-04T05:41:41.511Z,11.68
2022-12-04T05:44:10.048Z,11.63
2022-12-04T05:46:39.639Z,12.07
2022-12-04T05:49:08.318Z,11.48
2022-12-04T05:51:38.980Z,10.95
2022-12-04T05:54:09.460Z,11.55
2022-12-04T05:56:39.117Z,11.15
2022-12-04T05:59:08.110Z,11.15
2022-12-04T06:01:36.933Z,11.25
2022-12-04T06:04:05.976Z,11.13
2022-12-04T06:06:34.727Z,11.93
2022-12-04T06:09:05.316Z,11.07
2022-12-04T06:11:35.512Z,11.07
2022-12-04T06:14:06.289Z,11.13
2022-12-04T06:16:36.719Z,11.52
2022-12-04T06:19:07.161Z,10.95
2022-12-04T06:21:37.496Z,12.00
2022-12-04T06:24:08.284Z,11.43
2022-12-04T06:26:36.780Z,11.48
2022-12-04T06:29:05.288Z,11.52
2022-12-04T06:31:36.345Z,12.10
2022-12-04T06:34:05.303Z,12.13
2022-12-04T06:36:34.434Z,11.55
2022-12-04T06:39:03.109Z,11.25
2022-12-04T06:41:32.917Z,11.98
2022-12-04T06:44:01.250Z,11.27
2022-12-04T06:46:31.596Z,11.15
2022-12-04T06:49:00.897Z,11.05
2022-12-04T06:51:31.115Z,11.13
2022-12-04T06:53:59.581Z,11.00
2022-12-04T06:56:30.852Z,10.73
2022-12-04T06:59:02.824Z,11.18
2022-12-04T07:01:32.607Z,10.63
2022-12-04T07:04:04.022Z,10.70
2022-12-04T07:06:34.111Z,10.52
2022-12-04T07:09:04.087Z,10.80
2022-12-04T07:11:32.470Z,10.80
2022-12-04T07:14:02.409Z,10.43
2022-12-04T07:16:35.339Z,10.30
2022-12-04T07:19:07.064Z,11.38
2022-12-04T07:21:35.618Z,10.57
2022-12-04T07:24:04.169Z,9.88
2022-12-04T07:26:32.791Z,10.90
2022-12-04T07:29:02.592Z,10.55
2022-12-04T07:31:31.570Z,10.07
2022-12-04T07:34:00.314Z,11.23
2022-12-04T07:36:28.961Z,10.07
2022-12-04T07:38:57.439Z,10.32
2022-12-04T07:41:26.383Z,11.02
2022-12-04T07:43:55.318Z,10.00
2022-12-04T07:46:28.365Z,10.27
2022-12-04T07:48:56.902Z,10.05
2022-12-04T07:51:26.833Z,10.32
2022-12-04T07:54:02.054Z,10.85
2022-12-04T07:56:32.069Z,9.23
2022-12-04T07:59:00.598Z,10.00
2022-12-04T08:01:30.553Z,9.60
2022-12-04T08:04:00.155Z,9.85
2022-12-04T08:06:30.019Z,10.45
2022-12-04T08:08:58.483Z,10.23
2022-12-04T08:11:28.566Z,11.20
2022-12-04T08:13:57.108Z,9.90
2022-12-04T08:16:25.821Z,10.57
2022-12-04T08:18:56.050Z,10.23
2022-12-04T08:21:26.132Z,9.95
2022-12-04T08:23:55.786Z,9.68
2022-12-04T08:26:25.257Z,10.45
2022-12-04T08:28:54.399Z,10.63
2022-12-04T08:31:25.348Z,10.82
2022-12-04T08:33:56.954Z,10.25
2022-12-04T08:36:25.866Z,10.20
2022-12-04T08:38:54.292Z,10.48
2022-12-04T08:41:24.430Z,10.13
2022-12-04T08:43:54.764Z,9.98
2022-12-04T08:46:23.711Z,10.10
2022-12-04T08:48:52.082Z,10.95
2022-12-04T08:51:23.132Z,10.63
2022-12-04T08:53:55.619Z,10.20
2022-12-04T08:56:24.324Z,10.57
2022-12-04T08:58:52.655Z,9.63
2022-12-04T09:01:21.129Z,10.43
2022-12-04T09:03:49.676Z,10.25
2022-12-04T09:06:18.409Z,10.18
2022-12-04T09:08:48.120Z,10.07
2022-12-04T09:11:18.504Z,9.77
2022-12-04T09:13:47.396Z,9.88
2022-12-04T09:16:17.721Z,9.90
2022-12-04T09:18:46.309Z,9.77
2022-12-04T09:21:16.442Z,10.10
2022-12-04T09:23:44.899Z,10.02
2022-12-04T09:26:21.814Z,10.35
2022-12-04T09:28:50.984Z,9.90
2022-12-04T09:31:19.893Z,9.05
2022-12-04T09:33:48.509Z,9.77
2022-12-04T09:36:17.110Z,9.40
2022-12-04T09:38:45.841Z,9.48
2022-12-04T09:41:41.391Z,9.93
2022-12-04T09:44:12.713Z,9.68
2022-12-04T09:46:44.460Z,10.05
2022-12-04T09:49:15.576Z,9.45
2022-12-04T09:51:43.922Z,9.52
2022-12-04T09:54:15.099Z,9.20
2022-12-04T09:56:45.374Z,9.90
2022-12-04T09:59:16.602Z,9.63
2022-12-04T10:01:47.775Z,9.25
2022-12-04T10:04:17.364Z,10.23
2022-12-04T10:06:51.087Z,9.68
2022-12-04T10:09:23.378Z,9.30
2022-12-04T10:12:00.078Z,9.73
2022-12-04T10:14:48.831Z,9.00
2022-12-04T10:17:38.581Z,9.40
2022-12-04T10:20:19.326Z,9.23
2022-12-04T10:22:54.727Z,9.23
2022-12-04T10:25:24.084Z,9.43
2022-12-04T10:27:56.674Z,9.25
2022-12-04T10:30:27.605Z,8.82
2022-12-04T10:33:01.213Z,9.75
2022-12-04T10:35:30.804Z,8.75
2022-12-04T10:38:01.156Z,9.27
2022-12-04T10:40:32.887Z,9.15
2022-12-04T10:43:07.492Z,9.68
2022-12-04T10:45:35.868Z,9.35
2022-12-04T10:48:04.458Z,9.20
2022-12-04T10:50:32.877Z,9.43
2022-12-04T10:53:01.265Z,9.18
2022-12-04T10:55:31.867Z,9.45
2022-12-04T10:58:00.199Z,9.00
2022-12-04T11:00:32.100Z,9.45
2022-12-04T11:03:02.458Z,8.40
2022-12-04T11:05:33.298Z,8.95
2022-12-04T11:08:02.701Z,8.77
2022-12-04T11:10:36.507Z,8.45
2022-12-04T11:13:07.257Z,9.02
2022-12-04T11:15:43.209Z,9.77
2022-12-04T11:18:17.401Z,9.02
2022-12-04T11:20:53.638Z,8.73
2022-12-04T11:23:22.125Z,9.63
2022-12-04T11:25:51.698Z,8.65
2022-12-04T11:28:41.080Z,8.88
2022-12-04T11:31:16.619Z,9.02
2022-12-04T11:33:46.908Z,8.98
2022-12-04T11:36:23.565Z,8.32
2022-12-04T11:38:52.161Z,9.65
2022-12-04T11:41:26.831Z,8.82
2022-12-04T11:43:59.934Z,8.98
2022-12-04T11:46:31.823Z,8.90
2022-12-04T11:49:00.329Z,9.02
2022-12-04T11:51:39.468Z,9.20
2022-12-04T11:54:13.704Z,9.00
2022-12-04T11:56:44.271Z,9.40
2022-12-04T11:59:40.404Z,9.40
2022-12-04T12:02:29.657Z,8.63
2022-12-04T12:05:19.969Z,9.38
2022-12-04T12:07:56.388Z,9.00
2022-12-04T12:10:32.070Z,8.75
2022-12-04T12:13:06.106Z,8.93
2022-12-04T12:15:40.996Z,9.60
2022-12-04T12:18:23.461Z,9.15
2022-12-04T12:21:02.293Z,9.75
2022-12-04T12:24:05.762Z,9.23
2022-12-04T12:26:41.407Z,9.50
2022-12-04T12:29:18.307Z,8.82
2022-12-04T12:32:14.152Z,10.07
2022-12-04T12:34:44.469Z,8.90
2022-12-04T12:37:23.256Z,9.13
2022-12-04T12:39:58.344Z,8.70
2022-12-04T12:42:30.060Z,8.98
2022-12-04T12:45:03.547Z,9.23
2022-12-04T12:47:35.879Z,9.48
2022-12-04T12:50:07.409Z,9.35
2022-12-04T12:52:40.151Z,8.88
2022-12-04T12:55:17.139Z,8.82
2022-12-04T12:57:47.903Z,9.88
2022-12-04T13:00:18.184Z,9.25
2022-12-04T13:02:49.704Z,9.80
2022-12-04T13:05:21.862Z,9.30
2022-12-04T13:07:55.339Z,8.95
2022-12-04T13:10:25.345Z,9.35
2022-12-04T13:12:58.123Z,9.48
2022-12-04T13:15:39.926Z,9.60
2022-12-04T13:18:08.882Z,10.35
2022-12-04T13:20:40.776Z,8.70
2022-12-04T13:23:25.827Z,9.98
2022-12-04T13:25:59.008Z,9.52
2022-12-04T13:28:38.139Z,9.95
2022-12-04T13:31:15.332Z,9.73
2022-12-04T13:34:39.202Z,9.70
2022-12-04T13:37:23.377Z,10.00
2022-12-04T13:40:31.096Z,9.70
2022-12-04T13:43:33.299Z,9.32
2022-12-04T13:46:03.398Z,9.20
2022-12-04T13:48:39.715Z,9.90
2022-12-04T13:51:25.235Z,9.50
2022-12-04T13:54:29.992Z,9.57
2022-12-04T13:57:16.510Z,9.73
2022-12-04T13:59:45.446Z,9.07
2022-12-04T14:02:25.432Z,9.88
2022-12-04T14:04:56.920Z,8.98
2022-12-04T14:07:31.757Z,9.05
2022-12-04T14:10:01.980Z,8.98
2022-12-04T14:12:33.375Z,9.43
2022-12-04T14:15:03.209Z,8.68
2022-12-04T14:17:33.377Z,9.98
2022-12-04T14:20:07.613Z,9.68
2022-12-04T14:22:44.758Z,9.45
2022-12-04T14:25:35.213Z,9.80
2022-12-04T14:28:24.851Z,9.38
2022-12-04T14:31:05.541Z,9.90
2022-12-04T14:33:34.666Z,9.80
2022-12-04T14:36:05.147Z,9.60
2022-12-04T14:38:33.607Z,10.25
2022-12-04T14:41:02.097Z,9.50
2022-12-04T14:43:35.652Z,9.73
2022-12-04T14:46:08.188Z,9.63
2022-12-04T14:48:40.742Z,9.57
2022-12-04T14:51:13.750Z,9.48
2022-12-04T14:53:46.407Z,9.63
2022-12-04T14:56:42.072Z,9.13
2022-12-04T14:59:17.193Z,10.13
2022-12-04T15:01:47.149Z,9.45
2022-12-04T15:04:25.459Z,9.30
2022-12-04T15:06:59.906Z,8.85
2022-12-04T15:09:46.339Z,9.82
2022-12-04T15:12:36.564Z,9.40
2022-12-04T15:15:16.294Z,10.10
2022-12-04T15:17:44.991Z,9.73
2022-12-04T15:20:19.224Z,9.27
2022-12-04T15:22:47.717Z,10.10
2022-12-04T15:25:20.030Z,9.80
2022-12-04T15:27:48.916Z,10.18
2022-12-04T15:30:21.398Z,9.80
2022-12-04T15:32:51.724Z,9.70
2022-12-04T15:35:24.657Z,9.40
2022-12-04T15:37:53.157Z,10.15
2022-12-04T15:40:25.239Z,9.80
2022-12-04T15:42:54.142Z,10.95
2022-12-04T15:45:42.326Z,10.02
2022-12-04T15:48:10.709Z,10.13
2022-12-04T15:50:39.216Z,10.35
2022-12-04T15:53:15.543Z,9.80
2022-12-04T15:55:50.106Z,10.25
2022-12-04T15:58:21.386Z,9.88
2022-12-04T16:00:55.832Z,9.82
2022-12-04T16:03:27.463Z,10.13
2022-12-04T16:06:18.588Z,10.13
2022-12-04T16:08:48.265Z,10.23
2022-12-04T16:11:42.043Z,10.73
2022-12-04T16:14:18.292Z,9.50
2022-12-04T16:16:50.551Z,9.82
2022-12-04T16:19:29.109Z,9.80
2022-12-04T16:21:57.741Z,10.50
2022-12-04T16:24:26.475Z,10.65
2022-12-04T16:26:56.299Z,9.98
2022-12-04T16:29:24.983Z,9.80
2022-12-04T16:31:59.671Z,9.55
2022-12-04T16:34:31.405Z,10.65
2022-12-04T16:37:00.324Z,10.27
2022-12-04T16:39:28.758Z,10.20
2022-12-04T16:41:57.421Z,10.57
2022-12-04T16:44:25.843Z,9.70
2022-12-04T16:46:55.703Z,10.07
2022-12-04T16:49:24.264Z,10.82
2022-12-04T16:51:52.674Z,10.20
2022-12-04T16:54:21.046Z,9.82
2022-12-04T16:56:49.493Z,10.38
2022-12-04T16:59:17.986Z,10.30
2022-12-04T17:01:48.193Z,9.93
2022-12-04T17:04:18.384Z,10.18
2022-12-04T17:06:47.026Z,10.07
2022-12-04T17:09:16.469Z,10.05
2022-12-04T17:11:44.964Z,10.75
2022-12-04T17:14:13.297Z,9.82
2022-12-04T17:16:43.551Z,10.02
2022-12-04T17:19:12.539Z,10.50
2022-12-04T17:21:42.274Z,10.68
2022-12-04T17:24:10.694Z,10.15
2022-12-04T17:26:39.124Z,10.38
2022-12-04T17:29:07.520Z,10.02
2022-12-04T17:31:35.888Z,11.45
2022-12-04T17:34:04.591Z,10.73
2022-12-04T17:36:32.924Z,10.15
2022-12-04T17:39:02.762Z,10.73
2022-12-04T17:41:31.280Z,10.90
2022-12-04T17:44:01.001Z,10.57
2022-12-04T17:46:29.567Z,10.13
2022-12-04T17:49:01.488Z,10.40
2022-12-04T17:51:32.547Z,10.57
2022-12-04T17:54:02.304Z,10.80
2022-12-04T17:56:30.753Z,10.10
2022-12-04T17:58:59.094Z,9.98
2022-12-04T18:01:29.653Z,10.02
2022-12-04T18:04:00.229Z,10.75
2022-12-04T18:06:30.767Z,10.88
2022-12-04T18:08:59.214Z,10.15
2022-12-04T18:11:30.247Z,10.77
2022-12-04T18:14:00.328Z,10.98
2022-12-04T18:16:29.652Z,10.25
2022-12-04T18:18:58.649Z,10.38
2022-12-04T18:21:27.262Z,10.02
2022-12-04T18:23:57.721Z,10.10
2022-12-04T18:26:28.726Z,10.15
2022-12-04T18:28:57.255Z,9.63
2022-12-04T18:31:25.754Z,10.02
2022-12-04T18:33:54.278Z,9.50
2022-12-04T18:36:24.560Z,10.07
2022-12-04T18:38:55.536Z,9.70
2022-12-04T18:41:24.310Z,9.98
2022-12-04T18:43:55.105Z,10.38
2022-12-04T18:46:23.642Z,10.15
2022-12-04T18:48:54.138Z,11.18
2022-12-04T18:51:24.208Z,10.50
2022-12-04T18:53:53.615Z,12.93
2022-12-04T18:56:22.373Z,15.88
2022-12-04T18:58:51.180Z,14.68
2022-12-04T19:01:21.277Z,17.05
2022-12-04T19:03:49.704Z,21.52
2022-12-04T19:06:18.228Z,23.80
2022-12-04T19:08:46.800Z,28.70
2022-12-04T19:11:16.406Z,21.65
2022-12-04T19:13:44.815Z,23.90
2022-12-04T19:16:13.657Z,23.75
2022-12-04T19:18:45.222Z,27.50
2022-12-04T19:21:14.422Z,22.63
2022-12-04T19:23:42.936Z,22.23
2022-12-04T19:26:11.345Z,22.88
2022-12-04T19:28:39.843Z,24.65
2022-12-04T19:31:16.243Z,20.85
2022-12-04T19:33:46.104Z,20.85
2022-12-04T19:36:15.065Z,21.55
2022-12-04T19:38:43.720Z,20.05
2022-12-04T19:41:14.858Z,21.13
2022-12-04T19:43:45.164Z,20.70
2022-12-04T19:46:16.139Z,20.42
2022-12-04T19:48:47.447Z,21.13
2022-12-04T19:51:18.514Z,19.75
2022-12-04T19:53:47.109Z,19.85
2022-12-04T19:56:17.044Z,19.55
2022-12-04T19:58:45.622Z,18.27
2022-12-04T20:01:17.447Z,20.05
2022-12-04T20:03:47.468Z,18.55
2022-12-04T20:06:18.071Z,18.02
2022-12-04T20:08:46.841Z,18.33
2022-12-04T20:11:17.899Z,18.35
2022-12-04T20:13:46.781Z,17.85
2022-12-04T20:16:17.214Z,17.63
2022-12-04T20:18:47.237Z,17.27
2022-12-04T20:21:15.791Z,17.65
2022-12-04T20:23:46.419Z,16.27
2022-12-04T20:26:15.409Z,17.15
2022-12-04T20:28:43.965Z,17.67
2022-12-04T20:31:14.354Z,16.73
2022-12-04T20:33:42.880Z,15.77
2022-12-04T20:36:12.970Z,16.08
2022-12-04T20:38:42.023Z,15.85
2022-12-04T20:41:13.413Z,15.85
2022-12-04T20:43:41.920Z,16.00
2022-12-04T20:46:15.282Z,16.30
2022-12-04T20:48:48.126Z,15.70
2022-12-04T20:51:18.596Z,14.75
2022-12-04T20:53:47.247Z,15.02
2022-12-04T20:56:15.754Z,16.23
2022-12-04T20:58:44.145Z,15.07
2022-12-04T21:01:14.107Z,15.02
2022-12-04T21:03:42.917Z,15.32
2022-12-04T21:06:13.637Z,14.20
2022-12-04T21:08:56.799Z,14.95
2022-12-04T21:11:26.423Z,13.88
2022-12-04T21:14:13.389Z,14.30
2022-12-04T21:16:41.987Z,13.88
2022-12-04T21:19:11.875Z,14.30
2022-12-04T21:21:40.330Z,13.52
2022-12-04T21:24:12.148Z,13.15
2022-12-04T21:26:40.536Z,13.73
2022-12-04T21:29:09.191Z,13.35
2022-12-04T21:31:37.907Z,14.43
2022-12-04T21:34:08.358Z,13.52
2022-12-04T21:36:36.783Z,13.23
2022-12-04T21:39:05.543Z,13.80
2022-12-04T21:41:52.656Z,13.60
2022-12-04T21:44:21.682Z,13.63
2022-12-04T21:46:50.685Z,13.15
2022-12-04T21:49:19.726Z,12.85
2022-12-04T21:51:57.403Z,13.80
2022-12-04T21:54:26.940Z,14.02
2022-12-04T21:56:56.424Z,13.88
2022-12-04T21:59:25.031Z,12.90
2022-12-04T22:01:53.343Z,12.75
2022-12-04T22:04:22.038Z,13.48
2022-12-04T22:06:50.505Z,12.27
2022-12-04T22:09:19.470Z,13.07
2022-12-04T22:11:47.912Z,12.90
2022-12-04T22:14:17.773Z,11.23
2022-12-04T22:16:46.258Z,12.00
2022-12-04T22:19:14.879Z,12.30
2022-12-04T22:21:43.316Z,11.45
2022-12-04T22:24:12.024Z,12.00
2022-12-04T22:26:40.502Z,12.40
2022-12-04T22:29:34.047Z,11.82
2022-12-04T22:31:58.836Z,11.13
2022-12-04T22:34:27.278Z,12.57
2022-12-04T22:36:55.788Z,12.43
2022-12-04T22:39:24.321Z,12.45
2022-12-04T22:41:52.698Z,12.75
2022-12-04T22:44:21.209Z,12.70
2022-12-04T22:46:49.912Z,13.95
2022-12-04T22:49:19.943Z,12.60
2022-12-04T22:51:48.298Z,13.63
2022-12-04T22:54:17.229Z,14.10
2022-12-04T22:56:45.752Z,13.38
2022-12-04T22:59:14.309Z,13.85
2022-12-04T23:01:43.165Z,13.30
2022-12-04T23:04:11.617Z,14.23
2022-12-04T23:06:41.755Z,13.40
2022-12-04T23:09:12.737Z,14.07
2022-12-04T23:11:41.506Z,13.75
2022-12-04T23:14:11.592Z,13.10
2022-12-04T23:16:40.345Z,12.70
2022-12-04T23:19:08.982Z,13.25
2022-12-04T23:21:37.961Z,12.35
2022-12-04T23:24:07.790Z,13.48
2022-12-04T23:26:38.446Z,13.35
2022-12-04T23:29:23.254Z,13.13
2022-12-04T23:31:55.466Z,12.25
2022-12-04T23:34:24.197Z,12.70
2022-12-04T23:36:52.682Z,13.18
2022-12-04T23:39:22.468Z,12.95
2022-12-04T23:41:51.005Z,12.50
2022-12-04T23:44:19.181Z,12.77
2022-12-04T23:46:48.551Z,11.70
2022-12-04T23:49:17.031Z,11.63
2022-12-04T23:51:45.507Z,11.35
2022-12-04T23:54:13.876Z,11.90
2022-12-04T23:56:43.712Z,11.48
2022-12-04T23:59:12.070Z,11.48
